createdAt,value
2019-04-06T00:00:49.363Z,7.86
2019-04-06T00:03:21.020Z,7.86
2019-04-06T00:05:53.434Z,7.86
2019-04-06T00:08:23.770Z,7.86
2019-04-06T00:10:55.267Z,7.86
2019-04-06T00:13:25.617Z,7.84
2019-04-06T00:15:57.285Z,7.85
2019-04-06T00:18:27.701Z,7.85
2019-04-06T00:20:58.271Z,7.86
2019-04-06T00:23:29.522Z,7.86
2019-04-06T00:25:59.993Z,7.85
2019-04-06T00:28:30.584Z,7.87
2019-04-06T00:31:20.025Z,7.87
2019-04-06T00:33:50.264Z,7.87
2019-04-06T00:36:22.071Z,7.90
2019-04-06T00:38:52.321Z,7.89
2019-04-06T00:41:22.929Z,7.91
2019-04-06T00:43:53.277Z,7.92
2019-04-06T00:46:25.821Z,7.92
2019-04-06T00:48:56.131Z,7.93
2019-04-06T00:51:26.417Z,7.92
2019-04-06T00:53:57.028Z,7.93
2019-04-06T00:56:29.822Z,7.93
2019-04-06T00:59:00.377Z,7.94
2019-04-06T01:01:30.839Z,7.96
2019-04-06T01:04:01.434Z,7.97
2019-04-06T01:06:33.035Z,7.98
2019-04-06T01:09:04.145Z,7.99
2019-04-06T01:11:34.764Z,8.02
2019-04-06T01:14:05.036Z,8.02
2019-04-06T01:16:35.375Z,8.02
2019-04-06T01:19:05.872Z,8.02
2019-04-06T01:21:36.160Z,8.03
2019-04-06T01:24:06.984Z,8.06
2019-04-06T01:26:37.261Z,8.07
2019-04-06T01:29:09.000Z,8.08
2019-04-06T01:31:39.284Z,8.09
2019-04-06T01:34:10.495Z,8.09
2019-04-06T01:36:41.810Z,8.10
2019-04-06T01:39:12.889Z,8.09
2019-04-06T01:41:43.245Z,8.08
2019-04-06T01:44:14.099Z,8.07
2019-04-06T01:46:44.735Z,8.03
2019-04-06T01:49:15.088Z,8.03
2019-04-06T01:51:45.675Z,8.06
2019-04-06T01:54:15.944Z,8.06
2019-04-06T01:56:46.601Z,8.04
2019-04-06T01:59:16.847Z,8.02
2019-04-06T02:02:06.057Z,8.04
2019-04-06T02:04:36.794Z,8.03
2019-04-06T02:07:07.100Z,8.05
2019-04-06T02:09:37.664Z,8.06
2019-04-06T02:12:08.261Z,8.05
2019-04-06T02:14:38.553Z,8.03
2019-04-06T02:17:08.843Z,8.04
2019-04-06T02:19:39.650Z,8.05
2019-04-06T02:22:09.960Z,8.05
2019-04-06T02:24:40.252Z,8.07
2019-04-06T02:27:14.089Z,8.08
2019-04-06T02:29:45.099Z,8.08
2019-04-06T02:32:37.635Z,8.10
2019-04-06T02:35:33.925Z,8.12
2019-04-06T02:38:20.397Z,8.11
2019-04-06T02:41:12.771Z,8.10
2019-04-06T02:43:43.069Z,8.12
2019-04-06T02:46:13.623Z,8.15
2019-04-06T02:48:44.119Z,8.14
2019-04-06T02:51:18.336Z,8.15
2019-04-06T02:53:48.659Z,8.15
2019-04-06T02:56:20.468Z,8.15
2019-04-06T02:58:50.962Z,8.13
2019-04-06T03:01:21.308Z,8.13
2019-04-06T03:03:52.192Z,8.12
2019-04-06T03:06:22.779Z,8.13
2019-04-06T03:08:53.780Z,8.13
2019-04-06T03:11:24.184Z,8.13
2019-04-06T03:13:54.928Z,8.12
2019-04-06T03:16:25.267Z,8.12
2019-04-06T03:18:55.847Z,8.12
2019-04-06T03:21:26.217Z,8.10
2019-04-06T03:23:56.988Z,8.09
2019-04-06T03:26:27.294Z,8.10
2019-04-06T03:28:58.560Z,8.09
2019-04-06T03:31:29.350Z,8.09
2019-04-06T03:33:59.942Z,8.11
2019-04-06T03:36:30.409Z,8.09
2019-04-06T03:39:01.250Z,8.10
2019-04-06T03:41:32.535Z,8.11
2019-04-06T03:44:06.076Z,8.13
2019-04-06T03:46:36.388Z,8.14
2019-04-06T03:49:06.980Z,8.13
2019-04-06T03:51:37.474Z,8.13
2019-04-06T03:54:08.011Z,8.13
2019-04-06T03:56:38.561Z,8.14
2019-04-06T03:59:08.881Z,8.14
2019-04-06T04:01:39.801Z,8.15
2019-04-06T04:04:10.059Z,8.16
2019-04-06T04:06:40.389Z,8.16
2019-04-06T04:09:11.019Z,8.15
2019-04-06T04:11:41.430Z,8.15
2019-04-06T04:14:12.029Z,8.16
2019-04-06T04:16:42.609Z,8.16
2019-04-06T04:19:12.915Z,8.17
2019-04-06T04:21:44.955Z,8.17
2019-04-06T04:24:15.240Z,8.16
2019-04-06T04:26:47.033Z,8.15
2019-04-06T04:29:17.644Z,8.17
2019-04-06T04:31:48.682Z,8.18
2019-04-06T04:34:19.002Z,8.17
2019-04-06T04:36:50.467Z,8.15
2019-04-06T04:39:20.769Z,8.15
2019-04-06T04:41:51.109Z,8.14
2019-04-06T04:44:21.765Z,8.14
2019-04-06T04:46:52.029Z,8.14
2019-04-06T04:49:22.974Z,8.15
2019-04-06T04:51:53.277Z,8.14
2019-04-06T04:54:23.827Z,8.16
2019-04-06T04:56:54.124Z,8.16
2019-04-06T04:59:24.496Z,8.16
2019-04-06T05:01:54.821Z,8.15
2019-04-06T05:04:25.243Z,8.16
2019-04-06T05:06:55.517Z,8.15
2019-04-06T05:09:27.568Z,8.17
2019-04-06T05:11:57.854Z,8.16
2019-04-06T05:14:57.201Z,8.17
2019-04-06T05:17:28.281Z,8.18
2019-04-06T05:19:59.008Z,8.20
2019-04-06T05:22:32.002Z,8.22
2019-04-06T05:25:02.528Z,8.24
2019-04-06T05:27:34.031Z,8.26
2019-04-06T05:30:07.365Z,8.27
2019-04-06T05:32:39.516Z,8.28
2019-04-06T05:35:09.933Z,8.28
2019-04-06T05:37:40.985Z,8.33
2019-04-06T05:40:12.200Z,8.38
2019-04-06T05:42:43.544Z,8.45
2019-04-06T05:45:19.704Z,8.51
2019-04-06T05:47:51.685Z,8.56
2019-04-06T05:50:22.856Z,8.62
2019-04-06T05:52:53.600Z,8.68
2019-04-06T05:55:24.695Z,8.78
2019-04-06T05:58:03.431Z,8.84
2019-04-06T06:00:27.864Z,8.94
2019-04-06T06:02:59.736Z,9.01
2019-04-06T06:05:30.599Z,9.05
2019-04-06T06:08:00.868Z,9.14
2019-04-06T06:10:31.676Z,9.21
2019-04-06T06:13:02.372Z,9.24
2019-04-06T06:15:32.971Z,9.23
2019-04-06T06:18:03.394Z,9.30
2019-04-06T06:20:33.944Z,9.37
2019-04-06T06:23:04.485Z,9.45
2019-04-06T06:25:35.007Z,9.45
2019-04-06T06:28:14.165Z,9.45
2019-04-06T06:30:38.290Z,9.52
2019-04-06T06:33:08.627Z,9.62
2019-04-06T06:35:40.276Z,9.69
2019-04-06T06:38:10.659Z,9.80
2019-04-06T06:40:41.644Z,9.93
2019-04-06T06:43:13.158Z,10.02
2019-04-06T06:45:45.959Z,10.08
2019-04-06T06:48:16.478Z,10.20
2019-04-06T06:50:47.383Z,10.20
2019-04-06T06:53:20.250Z,10.30
2019-04-06T06:55:53.274Z,10.30
2019-04-06T06:58:25.523Z,10.30
2019-04-06T07:00:57.459Z,10.43
2019-04-06T07:03:28.022Z,10.57
2019-04-06T07:05:58.663Z,10.72
2019-04-06T07:08:31.159Z,10.85
2019-04-06T07:11:01.534Z,11.01
2019-04-06T07:13:32.392Z,11.25
2019-04-06T07:16:03.428Z,11.25
2019-04-06T07:18:34.139Z,11.36
2019-04-06T07:21:06.254Z,11.34
2019-04-06T07:23:36.864Z,11.33
2019-04-06T07:26:07.332Z,11.33
2019-04-06T07:28:39.447Z,11.40
2019-04-06T07:31:09.784Z,11.58
2019-04-06T07:33:40.449Z,11.80
2019-04-06T07:36:10.915Z,11.80
2019-04-06T07:38:41.502Z,11.75
2019-04-06T07:41:13.427Z,11.75
2019-04-06T07:43:44.505Z,11.84
2019-04-06T07:46:15.402Z,11.83
2019-04-06T07:48:48.269Z,11.84
2019-04-06T07:51:18.904Z,12.02
2019-04-06T07:53:51.599Z,12.21
2019-04-06T07:56:22.006Z,12.32
2019-04-06T07:58:53.664Z,12.31
2019-04-06T08:01:24.160Z,12.34
2019-04-06T08:03:54.441Z,12.46
2019-04-06T08:06:26.401Z,12.62
2019-04-06T08:08:58.458Z,12.69
2019-04-06T08:11:29.110Z,12.68
2019-04-06T08:14:00.575Z,12.58
2019-04-06T08:16:31.370Z,12.69
2019-04-06T08:19:02.299Z,12.69
2019-04-06T08:21:33.008Z,12.83
2019-04-06T08:24:03.397Z,13.00
2019-04-06T08:26:33.713Z,13.07
2019-04-06T08:29:05.110Z,13.11
2019-04-06T08:31:36.673Z,13.18
2019-04-06T08:34:07.313Z,13.19
2019-04-06T08:36:37.936Z,13.33
2019-04-06T08:39:09.243Z,13.36
2019-04-06T08:41:40.049Z,13.35
2019-04-06T08:44:11.523Z,13.43
2019-04-06T08:46:42.271Z,13.73
2019-04-06T08:49:12.917Z,14.16
2019-04-06T08:51:43.634Z,14.49
2019-04-06T08:54:17.514Z,14.75
2019-04-06T08:56:49.565Z,15.16
2019-04-06T08:59:20.119Z,15.17
2019-04-06T09:01:50.450Z,15.20
2019-04-06T09:04:20.748Z,15.10
2019-04-06T09:06:52.985Z,15.02
2019-04-06T09:09:24.952Z,15.13
2019-04-06T09:11:55.870Z,15.07
2019-04-06T09:14:26.431Z,15.19
2019-04-06T09:16:59.280Z,14.90
2019-04-06T09:19:29.609Z,15.05
2019-04-06T09:24:37.438Z,15.37
2019-04-06T09:27:08.818Z,15.25
2019-04-06T09:29:40.767Z,15.03
2019-04-06T09:32:14.395Z,15.02
2019-04-06T09:34:45.119Z,14.98
2019-04-06T09:37:15.794Z,15.11
2019-04-06T09:39:46.377Z,15.24
2019-04-06T09:42:18.406Z,15.31
2019-04-06T09:45:00.235Z,15.27
2019-04-06T09:47:56.305Z,15.15
2019-04-06T09:50:47.687Z,15.14
2019-04-06T09:53:40.202Z,16.12
2019-04-06T09:56:21.385Z,16.12
2019-04-06T09:59:33.983Z,16.24
2019-04-06T10:02:10.296Z,16.41
2019-04-06T10:05:07.756Z,16.28
2019-04-06T10:08:00.687Z,16.03
2019-04-06T10:10:59.055Z,15.52
2019-04-06T10:13:47.758Z,15.61
2019-04-06T10:16:29.312Z,15.41
2019-04-06T10:19:09.047Z,15.00
2019-04-06T10:21:55.441Z,14.63
2019-04-06T10:24:34.281Z,14.53
2019-04-06T10:27:27.158Z,14.66
2019-04-06T10:30:25.784Z,14.68
2019-04-06T10:33:05.384Z,14.78
2019-04-06T10:35:55.140Z,14.45
2019-04-06T10:38:45.109Z,14.45
2019-04-06T10:41:28.168Z,14.41
2019-04-06T10:44:26.994Z,14.54
2019-04-06T10:47:19.310Z,14.78
2019-04-06T10:50:21.400Z,14.91
2019-04-06T10:53:09.895Z,15.47
2019-04-06T10:55:54.442Z,16.00
2019-04-06T10:58:51.590Z,16.19
2019-04-06T11:01:39.526Z,16.92
2019-04-06T11:04:18.645Z,18.05
2019-04-06T11:07:13.991Z,18.32
2019-04-06T11:09:55.571Z,18.70
2019-04-06T11:12:50.681Z,18.68
2019-04-06T11:15:58.453Z,18.85
2019-04-06T11:18:50.891Z,18.67
2019-04-06T11:21:42.954Z,17.82
2019-04-06T11:24:44.914Z,17.54
2019-04-06T11:27:32.874Z,17.58
2019-04-06T11:30:23.638Z,16.97
2019-04-06T11:33:18.921Z,16.95
2019-04-06T11:36:12.491Z,16.90
2019-04-06T11:39:01.541Z,16.44
2019-04-06T11:41:46.957Z,16.54
2019-04-06T11:44:36.601Z,16.54
2019-04-06T11:47:16.121Z,16.83
2019-04-06T11:50:11.622Z,17.65
2019-04-06T11:52:54.398Z,17.72
2019-04-06T11:55:45.032Z,18.06
2019-04-06T11:58:30.182Z,18.11
2019-04-06T12:01:19.352Z,17.58
2019-04-06T12:04:09.226Z,17.05
2019-04-06T12:07:07.692Z,17.59
2019-04-06T12:10:06.238Z,17.57
2019-04-06T12:12:55.848Z,17.38
2019-04-06T12:15:48.284Z,17.66
2019-04-06T12:18:23.936Z,18.02
2019-04-06T12:21:13.525Z,18.52
2019-04-06T12:24:04.849Z,18.57
2019-04-06T12:26:57.584Z,18.48
2019-04-06T12:29:46.061Z,18.45
2019-04-06T12:32:44.892Z,18.19
2019-04-06T12:35:34.227Z,18.44
2019-04-06T12:38:25.515Z,18.93
2019-04-06T12:41:14.044Z,18.92
2019-04-06T12:44:06.538Z,19.34
2019-04-06T12:47:04.096Z,19.34
2019-04-06T12:49:52.107Z,18.74
2019-04-06T12:52:32.649Z,18.52
2019-04-06T12:55:27.506Z,18.29
2019-04-06T12:58:08.045Z,18.69
2019-04-06T13:01:03.202Z,18.69
2019-04-06T13:03:46.224Z,18.93
2019-04-06T13:06:34.795Z,19.13
2019-04-06T13:09:26.703Z,19.99
2019-04-06T13:12:22.752Z,19.99
2019-04-06T13:15:21.483Z,20.14
2019-04-06T13:18:07.563Z,19.54
2019-04-06T13:21:06.370Z,19.83
2019-04-06T13:23:55.768Z,19.87
2019-04-06T13:26:48.329Z,19.39
2019-04-06T13:29:50.192Z,19.17
2019-04-06T13:32:37.126Z,19.17
2019-04-06T13:35:38.771Z,19.16
2019-04-06T13:38:23.277Z,19.20
2019-04-06T13:41:11.333Z,18.80
2019-04-06T13:43:47.438Z,18.76
2019-04-06T13:46:39.951Z,18.84
2019-04-06T13:49:38.538Z,18.98
2019-04-06T13:52:30.911Z,18.63
2019-04-06T13:55:21.109Z,18.61
2019-04-06T13:58:05.679Z,18.86
2019-04-06T14:00:45.030Z,19.13
2019-04-06T14:03:39.377Z,19.03
2019-04-06T14:06:39.068Z,19.27
2019-04-06T14:09:27.093Z,18.98
2019-04-06T14:12:43.031Z,18.71
2019-04-06T14:15:41.510Z,18.60
2019-04-06T14:18:22.181Z,18.82
2019-04-06T14:21:12.300Z,18.84
2019-04-06T14:24:05.265Z,18.81
2019-04-06T14:26:55.425Z,18.73
2019-04-06T14:29:36.066Z,18.71
2019-04-06T14:32:24.413Z,18.46
2019-04-06T14:35:22.950Z,18.47
2019-04-06T14:38:27.805Z,18.47
2019-04-06T14:41:16.344Z,18.47
2019-04-06T14:44:14.379Z,18.39
2019-04-06T14:47:05.499Z,18.33
2019-04-06T14:49:54.288Z,18.43
2019-04-06T14:52:49.830Z,18.54
2019-04-06T14:55:42.750Z,18.53
2019-04-06T14:58:35.787Z,18.35
2019-04-06T15:01:36.969Z,18.38
2019-04-06T15:04:28.444Z,18.68
2019-04-06T15:07:19.300Z,18.67
2019-04-06T15:10:12.722Z,18.62
2019-04-06T15:13:08.320Z,18.70
2019-04-06T15:16:09.053Z,18.88
2019-04-06T15:18:59.133Z,19.00
2019-04-06T15:21:59.040Z,19.13
2019-04-06T15:24:52.014Z,18.96
2019-04-06T15:27:52.067Z,18.75
2019-04-06T15:30:41.885Z,18.80
2019-04-06T15:33:32.015Z,18.80
2019-04-06T15:36:20.918Z,18.81
2019-04-06T15:39:13.390Z,19.05
2019-04-06T15:42:01.431Z,19.15
2019-04-06T15:44:59.627Z,19.01
2019-04-06T15:47:48.820Z,18.81
2019-04-06T15:50:49.317Z,18.66
2019-04-06T15:53:35.558Z,18.36
2019-04-06T15:56:12.365Z,18.13
2019-04-06T15:58:49.047Z,17.90
2019-04-06T16:02:00.313Z,17.80
2019-04-06T16:04:31.501Z,17.77
2019-04-06T16:07:39.581Z,17.77
2019-04-06T16:10:31.765Z,17.72
2019-04-06T16:13:15.393Z,17.78
2019-04-06T16:15:52.576Z,17.98
2019-04-06T16:18:48.869Z,18.17
2019-04-06T16:21:35.761Z,18.22
2019-04-06T16:24:23.940Z,18.28
2019-04-06T16:27:09.559Z,18.28
2019-04-06T16:29:51.446Z,18.10
2019-04-06T16:32:57.678Z,17.68
2019-04-06T16:35:51.217Z,17.46
2019-04-06T16:38:47.109Z,17.25
2019-04-06T16:41:43.340Z,17.08
2019-04-06T16:44:33.844Z,16.96
2019-04-06T16:47:24.161Z,16.83
2019-04-06T16:50:24.194Z,16.75
2019-04-06T16:53:17.414Z,16.67
2019-04-06T16:56:07.579Z,16.60
2019-04-06T16:58:51.579Z,16.53
2019-04-06T17:01:41.281Z,16.44
2019-04-06T17:04:43.070Z,16.39
2019-04-06T17:07:31.378Z,16.39
2019-04-06T17:10:19.433Z,16.39
2019-04-06T17:13:07.677Z,16.51
2019-04-06T17:15:48.029Z,16.59
2019-04-06T17:18:26.486Z,16.69
2019-04-06T17:21:19.481Z,16.73
2019-04-06T17:23:56.125Z,16.72
2019-04-06T17:26:42.314Z,16.61
2019-04-06T17:29:43.761Z,16.48
2019-04-06T17:32:35.637Z,16.27
2019-04-06T17:35:28.126Z,16.01
2019-04-06T17:38:19.351Z,15.82
2019-04-06T17:41:01.799Z,15.68
2019-04-06T17:43:54.296Z,15.55
2019-04-06T17:46:49.289Z,15.38
2019-04-06T17:49:50.918Z,15.27
2019-04-06T17:52:31.537Z,15.17
2019-04-06T17:55:26.977Z,15.02
2019-04-06T17:58:08.357Z,14.88
2019-04-06T18:01:07.236Z,14.73
2019-04-06T18:03:59.152Z,14.60
2019-04-06T18:06:39.596Z,14.45
2019-04-06T18:09:35.120Z,14.29
2019-04-06T18:12:24.146Z,14.17
2019-04-06T18:14:56.197Z,14.07
2019-04-06T18:17:26.766Z,13.98
2019-04-06T18:19:58.636Z,13.91
2019-04-06T18:22:28.950Z,13.80
2019-04-06T18:25:01.169Z,13.63
2019-04-06T18:28:05.282Z,13.63
2019-04-06T18:30:36.383Z,13.60
2019-04-06T18:33:14.865Z,13.51
2019-04-06T18:35:45.666Z,13.41
2019-04-06T18:38:20.980Z,13.29
2019-04-06T18:40:51.563Z,13.13
2019-04-06T18:43:25.522Z,13.08
2019-04-06T18:45:54.861Z,13.01
2019-04-06T18:48:27.366Z,12.92
2019-04-06T18:50:58.205Z,12.82
2019-04-06T18:56:06.269Z,12.79
2019-04-06T19:03:50.677Z,12.93
2019-04-06T19:06:21.020Z,12.83
2019-04-06T19:08:51.337Z,12.71
2019-04-06T19:11:22.012Z,12.53
2019-04-06T19:13:53.347Z,12.39
2019-04-06T19:16:24.227Z,12.26
2019-04-06T19:18:59.218Z,12.13
2019-04-06T19:21:30.989Z,12.02
2019-04-06T19:24:02.024Z,11.98
2019-04-06T19:26:34.085Z,12.03
2019-04-06T19:29:06.077Z,12.04
2019-04-06T19:31:36.480Z,12.10
2019-04-06T19:34:15.169Z,12.06
2019-04-06T19:36:45.686Z,11.97
2019-04-06T19:39:16.278Z,11.86
2019-04-06T19:41:46.590Z,11.84
2019-04-06T19:44:18.356Z,11.82
2019-04-06T19:46:48.964Z,11.71
2019-04-06T19:49:20.526Z,11.64
2019-04-06T19:51:50.907Z,11.58
2019-04-06T19:54:22.112Z,11.52
2019-04-06T19:56:52.956Z,11.47
2019-04-06T19:59:24.166Z,11.45
2019-04-06T20:01:54.877Z,11.48
2019-04-06T20:04:25.408Z,11.50
2019-04-06T20:06:56.074Z,11.50
2019-04-06T20:09:26.576Z,11.61
2019-04-06T20:12:04.819Z,11.66
2019-04-06T20:14:30.509Z,11.67
2019-04-06T20:17:02.363Z,11.65
2019-04-06T20:19:38.121Z,11.64
2019-04-06T20:22:09.125Z,11.61
2019-04-06T20:24:39.529Z,11.54
2019-04-06T20:27:12.381Z,11.43
2019-04-06T20:29:45.421Z,11.32
2019-04-06T20:32:22.292Z,11.21
2019-04-06T20:34:57.400Z,11.20
2019-04-06T20:37:28.604Z,11.22
2019-04-06T20:40:02.971Z,11.21
2019-04-06T20:42:34.977Z,11.23
2019-04-06T20:45:11.398Z,11.30
2019-04-06T20:47:46.561Z,11.42
2019-04-06T20:50:19.660Z,11.53
2019-04-06T20:52:50.937Z,11.57
2019-04-06T20:55:23.639Z,11.54
2019-04-06T20:57:56.774Z,11.50
2019-04-06T21:00:28.798Z,11.46
2019-04-06T21:02:59.294Z,11.46
2019-04-06T21:05:30.091Z,11.43
2019-04-06T21:08:00.900Z,11.46
2019-04-06T21:10:34.062Z,11.46
2019-04-06T21:13:21.661Z,11.46
2019-04-06T21:15:52.905Z,11.39
2019-04-06T21:18:25.311Z,11.39
2019-04-06T21:20:57.957Z,11.42
2019-04-06T21:23:31.355Z,11.37
2019-04-06T21:26:06.085Z,11.31
2019-04-06T21:28:38.090Z,11.22
2019-04-06T21:31:10.156Z,11.20
2019-04-06T21:33:40.602Z,11.13
2019-04-06T21:36:11.190Z,11.10
2019-04-06T21:38:41.613Z,11.06
2019-04-06T21:41:12.429Z,11.02
2019-04-06T21:43:43.398Z,10.96
2019-04-06T21:46:14.350Z,10.91
2019-04-06T21:48:44.661Z,10.87
2019-04-06T21:51:15.894Z,10.84
2019-04-06T21:53:47.953Z,10.77
2019-04-06T21:56:19.139Z,10.70
2019-04-06T21:58:50.412Z,10.69
2019-04-06T22:01:21.842Z,10.61
2019-04-06T22:03:53.905Z,10.51
2019-04-06T22:06:26.325Z,10.46
2019-04-06T22:08:57.690Z,10.41
2019-04-06T22:11:28.834Z,10.41
2019-04-06T22:13:59.245Z,10.44
2019-04-06T22:16:31.385Z,10.43
2019-04-06T22:19:01.874Z,10.45
2019-04-06T22:21:32.748Z,10.51
2019-04-06T22:24:04.830Z,10.54
2019-04-06T22:26:36.894Z,10.57
2019-04-06T22:29:08.184Z,10.59
2019-04-06T22:31:38.495Z,10.62
2019-04-06T22:34:09.287Z,10.63
2019-04-06T22:36:40.194Z,10.61
2019-04-06T22:39:11.218Z,10.57
2019-04-06T22:41:42.053Z,10.56
2019-04-06T22:44:14.391Z,10.61
2019-04-06T22:46:47.546Z,10.74
2019-04-06T22:49:19.033Z,10.87
2019-04-06T22:51:49.360Z,10.92
2019-04-06T22:54:20.004Z,11.02
2019-04-06T22:56:50.322Z,11.18
2019-04-06T22:59:20.971Z,11.35
2019-04-06T23:01:51.653Z,11.70
2019-04-06T23:04:51.329Z,11.90
2019-04-06T23:07:24.870Z,12.03
2019-04-06T23:09:55.447Z,12.22
2019-04-06T23:12:26.180Z,12.36
2019-04-06T23:14:56.696Z,12.50
2019-04-06T23:17:28.252Z,12.58
2019-04-06T23:19:59.083Z,12.67
2019-04-06T23:22:30.193Z,12.68
2019-04-06T23:25:00.587Z,12.74
2019-04-06T23:27:32.612Z,12.81
2019-04-06T23:30:02.938Z,12.86
2019-04-06T23:32:34.720Z,12.87
2019-04-06T23:35:05.855Z,12.87
2019-04-06T23:37:36.740Z,12.84
2019-04-06T23:40:07.604Z,12.87
2019-04-06T23:42:41.127Z,12.88
2019-04-06T23:45:11.778Z,12.93
2019-04-06T23:47:42.077Z,12.91
2019-04-06T23:50:15.486Z,12.89
2019-04-06T23:52:45.084Z,12.93
2019-04-06T23:55:16.782Z,12.89
2019-04-06T23:57:47.798Z,12.88
